Portada
METAR-TAF:

METAR-TAF

Aeroports :

Dammam, Aràbia Saudita

latitud: 26-28N, longitud: 049-47E, altitud: 22 m

Observació

L'informe es va fer fa 34 minuts, a les 11:00 UTC
Vent 12 kt del Nord, variant entre Nord-Oest i Nord/Nord-Est
Temperatura 46°C
Humitat 7%
Pressió 992 hPa
Visibilitat 10 km o més
sense núvols per sota de 1500 mi sense presència de cumulonimbus.

METAR: OEDF 241100Z 35012KT 320V030 CAVOK 46/01 Q0992 NOSIG

Hora: 14:34 (11:34 UTC)

Pronòstic

L'informe es va fer fa 8 hores i 34 minuts, a les 03:00 UTC
Pronòstic vàlid del 24 a les 06 UTC al 25 a les 12 UTC
Vent 14 kt del Nord
Visibilitat 10 km o més
sense núvols per sota de 1500 mi sense presència de cumulonimbus.
Evolucionant progressivament
l' 24 a les 17 UTC al 24 a les 19 UTC
Vent 8 kt del Oest/Sud-Oest
Evolucionant progressivament
l' 25 a les 01 UTC al 25 a les 03 UTC
Vent 12 kt del Nord/Nord-Oest

TAF: OEDF 240300Z 2406/2512 36014KT CAVOK BECMG 2417/2419 25008KT BECMG 2501/2503 33012KT

Observacions i pronòstics meteorològics de més de 4000 aeroports (METAR i TAF).

Les estacions disponibles són els punts grocs i vermells al mapa.

Posi el ratolí al punt desitjat per veure el nom de l'estació.

Feu clic per veure les observacions i els pronòstics meteorològics.

Per canviar el mapa: feu clic els botons verds amb una creu de color negre per apropar; al botó verd amb un guió per allunyar la imatge; o en les fletxes verdes per a mapes adjacents.


METAR-TAF: